KBRD/BRD METAR and TAF weather

Enter ICAO airport designator
Station Type Date Time Source
KBRD METAR 2021/03/04 20:53 UTC NOAA

KBRD 042053Z AUTO 13006KT 10SM CLR 06/M06 A3028 RMK AO2 SLP270 T00561061 58011


Station Type Date Time Source
KBRD Decoded METAR 2021/03/04 20:53 UTC NOAA

BRAINERD-CROW WING CO AIRPORT , MN, United States (KBRD) 46-24N 94-08W 372M
Mar 04, 2021 - 03:53 PM EST / 2021.03.04 2053 UTC
Wind: from the SE (130 degrees) at 7 MPH (6 KT):0
Visibility: 10 mile(s):0
Sky conditions: clear
Temperature: 42.1 F (5.6 C)
Dew Point: 21.0 F (-6.1 C)
Relative Humidity: 42%
Pressure (altimeter): 30.28 in. Hg (1025 hPa)
Pressure tendency: 0.03 inches (1.1 hPa) lower than three hours ago
ob: KBRD 042053Z AUTO 13006KT 10SM CLR 06/M06 A3028 RMK AO2 SLP270 T00561061 58011
cycle: 21

Station Type Date Time Source
KBRD TAF 2021/03/04 18:40 UTC NOAA

TAF KBRD 041738Z 0418/0518 12008KT P6SM SCT050
FM042300 10005KT P6SM FEW200
FM051200 00000KT P6SM SCT023
FM051600 00000KT P6SM SCT080

Example: see airport list